Broome, Australia
Current Conditions -  °F | °C
As of 7:30 PM on Thursday 23 Oct 2014 (Local Time) from YBRM Reporting Station
Scattered Clouds Scattered Clouds  
Wind Chill: 81°   Ceiling: Unl
Heat Index: 86°   Visibility: 6mi
Dew Point: 75°   Wind: 12mph
Humidity: 84%   Direction: 310°NW
Pressure: 29.85"   Gusts: NA
Location:  17.57°S, 122.22°E
Report Text: YBRM 231130Z AUTO 31010KT 9999 // SCT013 27/24 Q1011
Loading
Personal Weather Stations






























Interactive Weather Map
Tropical Storm Tracking
New forecast layout! Learn more

10-Day Weather Forecast

Advertisements
Track Severe Weather on mobile